Time;durP1;ratioP1;P1;durP2;ratioP2;P2;SDS_P1;SDS_P2;PMS_P1;PMS_P2;Temp;Humidity;BMP_temperature;BMP_pressure;BME280_temperature;BME280_humidity;BME280_pressure;Samples;Min_cycle;Max_cycle;Signal;HPM_P1;HPM_P2
2023/11/13 00:00:31;;;;;;;9.00;4.60;;;;;;;6.94;100.00;95720.16;5035599;28;20213;-67
2023/11/13 00:02:59;;;;;;;9.23;4.87;;;;;;;7.22;100.00;95738.88;5036197;28;20233;-67
2023/11/13 00:05:25;;;;;;;8.50;4.07;;;;;;;7.17;100.00;95738.59;5035563;28;20220;-67
2023/11/13 00:07:55;;;;;;;7.97;4.17;;;;;;;7.15;100.00;95719.59;5036484;28;20223;-67
2023/11/13 00:10:21;;;;;;;14.67;4.67;;;;;;;7.25;100.00;95741.19;5036447;28;20294;-67
2023/11/13 00:12:48;;;;;;;8.63;4.40;;;;;;;7.28;100.00;95734.63;5036214;28;20291;-67
2023/11/13 00:15:14;;;;;;;10.93;4.33;;;;;;;7.26;100.00;95731.34;5035433;28;20219;-67
2023/11/13 00:17:41;;;;;;;8.80;4.33;;;;;;;7.24;100.00;95742.97;5035864;28;20582;-67
2023/11/13 00:20:10;;;;;;;8.63;4.27;;;;;;;7.38;100.00;95747.50;5035976;28;20316;-67
2023/11/13 00:22:37;;;;;;;10.43;4.30;;;;;;;7.29;100.00;95751.16;5036212;28;20231;-67
2023/11/13 00:25:05;;;;;;;8.93;4.47;;;;;;;7.31;100.00;95743.94;5034717;28;20253;-67
2023/11/13 00:27:31;;;;;;;7.60;3.53;;;;;;;7.32;100.00;95741.16;5036038;28;20208;-67
2023/11/13 00:29:57;;;;;;;6.37;3.70;;;;;;;7.21;100.00;95742.53;5035330;28;20212;-65
2023/11/13 00:32:24;;;;;;;11.17;4.83;;;;;;;7.25;100.00;95746.44;5035952;28;20209;-68
2023/11/13 00:34:50;;;;;;;9.10;4.33;;;;;;;7.32;100.00;95741.16;5035152;28;20232;-67
2023/11/13 00:37:18;;;;;;;10.20;4.80;;;;;;;7.50;100.00;95746.97;5036055;28;20201;-64
2023/11/13 00:39:45;;;;;;;8.57;4.17;;;;;;;7.30;100.00;95745.72;5035985;28;20691;-65
2023/11/13 00:42:11;;;;;;;8.43;4.03;;;;;;;7.37;100.00;95738.84;5035265;28;20997;-68
2023/11/13 00:44:38;;;;;;;9.07;4.23;;;;;;;7.36;100.00;95733.78;5035241;28;20300;-66
2023/11/13 00:47:05;;;;;;;7.30;3.63;;;;;;;7.42;100.00;95733.09;5036355;28;20216;-68
2023/11/13 00:49:31;;;;;;;12.27;4.50;;;;;;;7.43;100.00;95730.31;5035568;28;20209;-67
2023/11/13 00:51:58;;;;;;;8.27;3.90;;;;;;;7.47;100.00;95721.13;5034621;28;20723;-65
2023/11/13 00:54:26;;;;;;;8.10;3.97;;;;;;;7.62;100.00;95724.63;5038520;28;20710;-68
2023/11/13 00:56:52;;;;;;;8.77;4.33;;;;;;;7.50;100.00;95731.25;5038885;28;20205;-65
2023/11/13 00:59:19;;;;;;;7.53;3.80;;;;;;;7.52;100.00;95729.28;5039294;28;21164;-65
2023/11/13 01:01:45;;;;;;;8.77;4.37;;;;;;;7.52;100.00;95733.69;5039741;28;20201;-67
2023/11/13 01:04:12;;;;;;;10.80;4.40;;;;;;;7.52;100.00;95739.78;5038624;28;20224;-67
2023/11/13 01:06:38;;;;;;;8.73;4.27;;;;;;;7.55;100.00;95731.56;5039301;28;20227;-66
2023/11/13 01:09:05;;;;;;;11.20;4.43;;;;;;;7.58;100.00;95743.50;5038726;28;20213;-66
2023/11/13 01:11:33;;;;;;;9.43;4.30;;;;;;;7.74;100.00;95746.88;5039387;28;20212;-66
2023/11/13 01:13:59;;;;;;;8.80;4.23;;;;;;;7.68;100.00;95750.19;5037915;28;20227;-65
2023/11/13 01:16:26;;;;;;;8.77;4.13;;;;;;;7.59;100.00;95748.59;5039158;28;20211;-68
2023/11/13 01:18:53;;;;;;;9.13;4.07;;;;;;;7.58;100.00;95741.69;5039450;28;20216;-68
2023/11/13 01:21:20;;;;;;;8.43;3.90;;;;;;;7.67;100.00;95745.91;5038783;28;20292;-66
2023/11/13 01:23:46;;;;;;;7.83;3.47;;;;;;;7.63;100.00;95739.38;5038658;28;20233;-68
2023/11/13 01:26:13;;;;;;;8.00;4.20;;;;;;;7.59;100.00;95729.44;5038977;28;20205;-67
2023/11/13 01:28:41;;;;;;;9.87;4.63;;;;;;;7.82;100.00;95725.84;5039144;28;20282;-68
2023/11/13 01:31:09;;;;;;;10.00;4.20;;;;;;;7.73;100.00;95721.63;5038534;28;21044;-68
2023/11/13 01:33:36;;;;;;;7.50;3.80;;;;;;;7.77;100.00;95717.69;5038362;28;20233;-68
2023/11/13 01:36:02;;;;;;;8.47;4.37;;;;;;;7.79;100.00;95715.72;5039223;28;20209;-67
2023/11/13 01:38:29;;;;;;;9.60;4.47;;;;;;;7.80;100.00;95722.56;5038816;28;20216;-67
2023/11/13 01:40:55;;;;;;;11.60;4.63;;;;;;;7.81;100.00;95723.41;5038785;28;20220;-69
2023/11/13 01:43:22;;;;;;;8.03;3.73;;;;;;;7.88;100.00;95712.06;5038221;28;20224;-67
2023/11/13 01:45:53;;;;;;;7.67;4.07;;;;;;;7.98;100.00;95710.84;5039022;28;20440;-67
2023/11/13 01:48:20;;;;;;;10.67;4.27;;;;;;;7.83;100.00;95701.25;5037823;28;20205;-67
2023/11/13 01:50:46;;;;;;;9.67;4.07;;;;;;;7.74;100.00;95702.31;5038505;28;20209;-67
2023/11/13 01:53:15;;;;;;;8.37;4.33;;;;;;;7.66;100.00;95714.63;5038643;28;20245;-66
2023/11/13 01:55:42;;;;;;;9.60;4.27;;;;;;;7.80;100.00;95698.16;5038266;28;20214;-65
2023/11/13 01:58:10;;;;;;;11.83;5.00;;;;;;;7.79;100.00;95686.88;5039183;28;20209;-68
2023/11/13 02:00:37;;;;;;;8.37;4.33;;;;;;;7.81;100.00;95682.25;5038112;28;20202;-68
2023/11/13 02:03:05;;;;;;;9.10;4.10;;;;;;;7.93;100.00;95676.44;5037488;28;20220;-65
2023/11/13 02:05:32;;;;;;;7.50;3.77;;;;;;;7.85;100.00;95673.03;5037084;28;20216;-64
2023/11/13 02:07:58;;;;;;;7.60;3.57;;;;;;;7.79;100.00;95671.13;5039118;28;20360;-67
2023/11/13 02:10:26;;;;;;;8.80;4.50;;;;;;;7.88;100.00;95670.09;5037279;28;20212;-67
2023/11/13 02:12:52;;;;;;;8.97;4.07;;;;;;;7.98;100.00;95668.03;5038393;28;20201;-65
2023/11/13 02:15:19;;;;;;;8.67;3.53;;;;;;;8.04;100.00;95670.78;5038265;28;20201;-67
2023/11/13 02:17:59;;;;;;;9.23;3.23;;;;;;;8.31;100.00;95666.81;5037945;28;20201;-67
2023/11/13 02:20:27;;;;;;;11.83;3.63;;;;;;;8.26;100.00;95658.66;5038038;28;20205;-67
2023/11/13 02:22:53;;;;;;;6.97;3.13;;;;;;;8.20;100.00;95664.63;5037403;28;20225;-67
2023/11/13 02:25:23;;;;;;;9.30;3.53;;;;;;;8.39;100.00;95666.75;5037751;28;20854;-66
2023/11/13 02:27:51;;;;;;;6.63;3.13;;;;;;;8.37;100.00;95668.75;5037777;28;20563;-67
2023/11/13 02:30:18;;;;;;;8.63;3.60;;;;;;;8.30;100.00;95662.56;5037920;28;20238;-67
2023/11/13 02:32:44;;;;;;;8.70;3.63;;;;;;;8.32;100.00;95661.38;5037620;28;20205;-67
2023/11/13 02:35:11;;;;;;;8.43;3.70;;;;;;;8.36;100.00;95659.25;5037389;28;20232;-67
2023/11/13 02:37:38;;;;;;;11.77;3.47;;;;;;;8.39;100.00;95646.59;5038358;28;20205;-67
2023/11/13 02:40:05;;;;;;;7.50;3.47;;;;;;;8.47;100.00;95656.19;5037307;28;20237;-67
2023/11/13 02:42:34;;;;;;;7.20;3.60;;;;;;;8.58;100.00;95651.34;5037762;28;20241;-67
2023/11/13 02:45:01;;;;;;;7.20;3.23;;;;;;;8.48;100.00;95644.69;5036606;28;20249;-67
2023/11/13 02:47:27;;;;;;;9.40;3.37;;;;;;;8.51;100.00;95635.47;5037995;28;20205;-66
2023/11/13 02:49:53;;;;;;;10.13;3.20;;;;;;;8.52;100.00;95633.66;5037155;28;20209;-67
2023/11/13 02:52:20;;;;;;;8.07;3.57;;;;;;;8.59;100.00;95635.38;5037706;28;20212;-68
2023/11/13 02:54:48;;;;;;;10.23;3.50;;;;;;;8.64;100.00;95630.41;5036741;28;20278;-69
2023/11/13 02:57:14;;;;;;;6.10;3.27;;;;;;;8.61;100.00;95625.50;5037408;28;20216;-68
2023/11/13 02:59:42;;;;;;;7.27;4.07;;;;;;;8.74;100.00;95623.06;5037423;28;20205;-68
2023/11/13 03:02:08;;;;;;;7.50;3.33;;;;;;;8.66;100.00;95617.09;5036963;28;20213;-67
2023/11/13 03:04:35;;;;;;;9.00;4.10;;;;;;;8.63;100.00;95618.28;5036216;28;20236;-67
2023/11/13 03:07:01;;;;;;;8.13;3.80;;;;;;;8.64;100.00;95613.81;5037119;28;20224;-67
2023/11/13 03:09:28;;;;;;;8.00;4.10;;;;;;;8.68;100.00;95615.94;5037530;28;20212;-67
2023/11/13 03:11:54;;;;;;;8.07;3.87;;;;;;;8.68;100.00;95608.03;5036787;28;20266;-67
2023/11/13 03:14:21;;;;;;;8.07;3.63;;;;;;;8.64;100.00;95614.66;5036458;28;20240;-68
2023/11/13 03:16:49;;;;;;;12.77;4.37;;;;;;;8.84;100.00;95610.47;5037410;28;20209;-66
2023/11/13 03:19:15;;;;;;;9.50;4.40;;;;;;;8.71;100.00;95607.69;5037207;28;20980;-69
2023/11/13 03:21:42;;;;;;;10.13;4.03;;;;;;;8.75;100.00;95602.88;5035227;28;20217;-67
2023/11/13 03:24:09;;;;;;;10.70;4.83;;;;;;;8.77;100.00;95604.34;5035512;28;20232;-66
2023/11/13 03:26:36;;;;;;;8.50;3.83;;;;;;;8.78;100.00;95600.72;5037081;28;20678;-67
2023/11/13 03:29:02;;;;;;;9.67;4.07;;;;;;;8.75;100.00;95595.81;5036295;28;20228;-67
2023/11/13 03:31:29;;;;;;;11.47;4.57;;;;;;;8.74;100.00;95590.75;5036822;28;20205;-67
2023/11/13 03:33:57;;;;;;;7.37;3.17;;;;;;;8.88;100.00;95601.25;5036234;28;20228;-69
2023/11/13 03:36:23;;;;;;;11.40;3.77;;;;;;;8.75;100.00;95605.50;5036011;28;20683;-68
2023/11/13 03:38:50;;;;;;;10.60;4.37;;;;;;;8.84;100.00;95607.84;5036767;28;20205;-67
2023/11/13 03:41:17;;;;;;;9.50;4.40;;;;;;;8.77;100.00;95612.22;5036181;28;20259;-67
2023/11/13 03:43:44;;;;;;;9.83;4.37;;;;;;;8.74;100.00;95612.56;5036113;28;20233;-69
2023/11/13 03:46:10;;;;;;;11.17;4.67;;;;;;;8.80;100.00;95619.72;5036398;28;20239;-67
2023/11/13 03:48:36;;;;;;;11.17;4.30;;;;;;;8.83;100.00;95616.72;5036676;28;20205;-66
2023/11/13 03:51:05;;;;;;;7.97;3.67;;;;;;;8.78;100.00;95616.47;5035786;28;20213;-66
2023/11/13 03:53:34;;;;;;;11.93;4.10;;;;;;;8.83;100.00;95613.28;5035886;28;20267;-67
2023/11/13 03:56:00;;;;;;;10.23;4.57;;;;;;;8.80;100.00;95618.91;5035748;28;20204;-67
2023/11/13 03:58:27;;;;;;;7.73;3.70;;;;;;;8.79;100.00;95617.28;5036899;28;20224;-67
2023/11/13 04:00:53;;;;;;;11.23;4.80;;;;;;;8.89;100.00;95623.91;5036147;28;20205;-67
2023/11/13 04:03:20;;;;;;;8.10;3.90;;;;;;;8.99;100.00;95621.81;5035358;28;20229;-66
2023/11/13 04:05:46;;;;;;;12.60;4.20;;;;;;;8.92;100.00;95626.16;5036753;28;20213;-66
2023/11/13 04:08:14;;;;;;;14.30;4.20;;;;;;;9.38;100.00;95620.50;5036039;28;20213;-67
2023/11/13 04:10:41;;;;;;;4.17;1.80;;;;;;;9.65;100.00;95613.69;5036105;28;20231;-67
2023/11/13 04:13:07;;;;;;;1.80;1.10;;;;;;;10.07;100.00;95607.50;5036221;28;20201;-66
2023/11/13 04:15:34;;;;;;;0.93;0.77;;;;;;;10.25;100.00;95596.53;5035487;28;20215;-67
2023/11/13 04:18:03;;;;;;;2.60;0.90;;;;;;;10.53;100.00;95595.53;5035727;28;20201;-69
2023/11/13 04:20:30;;;;;;;4.20;0.70;;;;;;;10.65;100.00;95593.97;5036407;28;20209;-68
2023/11/13 04:22:57;;;;;;;4.10;1.17;;;;;;;10.68;100.00;95598.84;5035952;28;20580;-69
2023/11/13 04:25:25;;;;;;;0.93;0.67;;;;;;;11.05;100.00;95607.19;5035212;28;20216;-67
2023/11/13 04:27:52;;;;;;;4.20;1.30;;;;;;;10.91;100.00;95602.88;5035539;28;20205;-67
2023/11/13 04:30:18;;;;;;;3.43;1.03;;;;;;;11.07;100.00;95608.63;5036179;28;20209;-68
2023/11/13 04:32:45;;;;;;;2.57;0.80;;;;;;;11.13;100.00;95602.56;5036190;28;20202;-67
2023/11/13 04:35:13;;;;;;;1.50;0.90;;;;;;;11.07;100.00;95602.53;5035004;28;20228;-67
2023/11/13 04:37:39;;;;;;;2.80;1.50;;;;;;;11.15;100.00;95600.56;5035618;28;20433;-69
2023/11/13 04:40:08;;;;;;;2.43;1.20;;;;;;;11.40;100.00;95609.59;5035894;28;20679;-67
2023/11/13 04:42:36;;;;;;;7.20;0.90;;;;;;;11.37;100.00;95611.81;5035230;28;20829;-67
2023/11/13 04:45:03;;;;;;;3.10;1.80;;;;;;;11.07;100.00;95620.97;5034738;28;20229;-67
2023/11/13 04:47:30;;;;;;;3.40;0.80;;;;;;;11.23;100.00;95629.41;5035840;28;20205;-67
2023/11/13 04:49:57;;;;;;;3.63;1.47;;;;;;;11.31;100.00;95637.13;5036021;28;20205;-67
2023/11/13 04:52:23;;;;;;;5.07;1.20;;;;;;;11.38;100.00;95640.63;5036091;28;20827;-67
2023/11/13 04:54:51;;;;;;;2.70;1.10;;;;;;;11.45;100.00;95641.47;5035263;28;21195;-68
2023/11/13 04:57:17;;;;;;;2.93;1.30;;;;;;;11.28;100.00;95652.56;5035681;28;20208;-67
2023/11/13 04:59:45;;;;;;;4.10;1.10;;;;;;;11.53;100.00;95651.06;5035019;28;20197;-67
2023/11/13 05:02:13;;;;;;;3.77;1.10;;;;;;;11.44;100.00;95647.75;5035616;28;20203;-67
2023/11/13 05:04:40;;;;;;;2.27;0.80;;;;;;;11.48;100.00;95642.91;5033437;28;20252;-67
2023/11/13 05:07:06;;;;;;;3.47;1.10;;;;;;;11.47;100.00;95665.84;5035489;28;20209;-67
2023/11/13 05:09:33;;;;;;;7.53;1.37;;;;;;;11.61;100.00;95659.66;5035237;28;20205;-67
2023/11/13 05:11:59;;;;;;;8.83;1.40;;;;;;;11.57;100.00;95663.69;5035348;28;20205;-67
2023/11/13 05:14:26;;;;;;;8.33;1.47;;;;;;;11.55;100.00;95665.69;5034458;28;20248;-67
2023/11/13 05:16:56;;;;;;;5.43;1.50;;;;;;;11.84;100.00;95663.56;5035865;28;20208;-67
2023/11/13 05:19:22;;;;;;;3.47;1.23;;;;;;;11.43;100.00;95661.13;5035959;28;20299;-65
2023/11/13 05:21:49;;;;;;;2.60;1.30;;;;;;;11.66;100.00;95660.66;5034767;28;20670;-65
2023/11/13 05:24:15;;;;;;;2.50;1.03;;;;;;;11.69;100.00;95656.81;5034411;28;20229;-67
2023/11/13 05:26:42;;;;;;;1.10;0.80;;;;;;;11.66;100.00;95671.22;5036014;28;20197;-65
2023/11/13 05:29:08;;;;;;;3.93;1.37;;;;;;;11.72;100.00;95659.06;5035584;28;20202;-67
2023/11/13 05:31:35;;;;;;;9.47;1.50;;;;;;;11.74;100.00;95660.50;5035153;28;20205;-67
2023/11/13 05:34:03;;;;;;;11.53;1.30;;;;;;;11.99;100.00;95658.13;5035217;28;20218;-67
2023/11/13 05:36:29;;;;;;;1.43;0.73;;;;;;;11.81;100.00;95666.63;5034778;28;20201;-67
2023/11/13 05:38:56;;;;;;;6.83;1.37;;;;;;;11.88;100.00;95669.28;5034954;28;20212;-67
2023/11/13 05:41:22;;;;;;;4.20;1.53;;;;;;;11.85;100.00;95678.41;5037234;28;20857;-65
2023/11/13 05:43:50;;;;;;;1.77;0.90;;;;;;;11.88;100.00;95679.84;5038395;28;20257;-68
2023/11/13 05:46:16;;;;;;;5.17;0.90;;;;;;;11.77;100.00;95675.13;5038139;28;20193;-66
2023/11/13 05:48:43;;;;;;;7.40;1.40;;;;;;;11.85;100.00;95669.66;5039221;28;20206;-66
2023/11/13 05:51:13;;;;;;;3.13;0.90;;;;;;;12.02;100.00;95668.31;5038336;28;20201;-67
2023/11/13 05:53:40;;;;;;;6.60;1.10;;;;;;;11.76;100.00;95684.88;5038097;28;20227;-68
2023/11/13 05:56:07;;;;;;;10.63;1.73;;;;;;;11.81;100.00;95681.63;5038293;28;21102;-65
2023/11/13 05:58:33;;;;;;;2.50;1.30;;;;;;;11.76;100.00;95694.59;5038689;28;20227;-65
2023/11/13 06:01:00;;;;;;;4.57;1.43;;;;;;;11.88;100.00;95685.91;5038649;28;20213;-68
2023/11/13 06:03:26;;;;;;;5.63;1.07;;;;;;;11.87;100.00;95694.84;5037063;28;20225;-68
2023/11/13 06:05:52;;;;;;;5.20;1.80;;;;;;;11.78;100.00;95697.88;5038706;28;20216;-65
2023/11/13 06:08:20;;;;;;;3.13;1.03;;;;;;;12.07;100.00;95698.38;5038688;28;20220;-67
2023/11/13 06:10:47;;;;;;;5.83;1.00;;;;;;;11.93;100.00;95709.09;5037711;28;20219;-67
2023/11/13 06:13:13;;;;;;;2.83;1.40;;;;;;;11.88;100.00;95708.88;5038532;28;20232;-67
2023/11/13 06:15:41;;;;;;;7.60;2.17;;;;;;;11.85;100.00;95714.53;5037476;28;20197;-68
2023/11/13 06:18:08;;;;;;;10.20;1.57;;;;;;;11.87;100.00;95708.03;5037709;28;20969;-64
2023/11/13 06:20:35;;;;;;;3.50;1.27;;;;;;;11.83;100.00;95700.75;5038006;28;20197;-65
2023/11/13 06:23:02;;;;;;;5.80;1.67;;;;;;;11.92;100.00;95707.47;5038451;28;20208;-68
2023/11/13 06:25:30;;;;;;;6.83;1.03;;;;;;;11.98;100.00;95704.06;5037126;28;20703;-66
2023/11/13 06:27:56;;;;;;;1.60;0.60;;;;;;;11.87;100.00;95707.25;5037907;28;20989;-65
2023/11/13 06:30:23;;;;;;;9.10;1.57;;;;;;;11.85;100.00;95709.25;5038430;28;20724;-65
2023/11/13 06:32:49;;;;;;;4.27;1.33;;;;;;;11.93;100.00;95706.47;5037834;28;20202;-67
2023/11/13 06:35:16;;;;;;;7.03;1.50;;;;;;;12.01;100.00;95724.78;5036782;28;20733;-67
2023/11/13 06:37:43;;;;;;;2.33;0.83;;;;;;;11.95;100.00;95715.81;5038251;28;20201;-68
2023/11/13 06:40:10;;;;;;;6.93;1.23;;;;;;;12.01;100.00;95703.66;5037625;28;20668;-67
2023/11/13 06:42:38;;;;;;;2.43;1.30;;;;;;;12.14;100.00;95711.59;5038183;28;20211;-69
2023/11/13 06:45:05;;;;;;;2.70;1.13;;;;;;;12.11;100.00;95714.66;5037176;28;20229;-65
2023/11/13 06:47:33;;;;;;;1.83;0.93;;;;;;;12.12;100.00;95716.25;5036511;28;21256;-66
2023/11/13 06:50:00;;;;;;;3.70;1.13;;;;;;;11.91;100.00;95724.31;5037504;28;20201;-66
2023/11/13 06:52:26;;;;;;;10.03;1.40;;;;;;;11.99;100.00;95716.22;5037199;28;20224;-66
2023/11/13 06:54:58;;;;;;;5.63;1.97;;;;;;;11.96;100.00;95724.53;5036808;28;20217;-68
2023/11/13 06:57:25;;;;;;;3.40;1.70;;;;;;;12.15;100.00;95723.81;5037798;28;20597;-64
2023/11/13 06:59:53;;;;;;;4.57;1.07;;;;;;;12.19;100.00;95723.19;5036901;28;20220;-67
2023/11/13 07:02:21;;;;;;;1.17;0.63;;;;;;;12.18;100.00;95735.59;5035610;28;20255;-66
2023/11/13 07:04:47;;;;;;;1.90;0.90;;;;;;;12.20;100.00;95738.84;5034921;28;20676;-68
2023/11/13 07:07:14;;;;;;;8.83;1.30;;;;;;;12.06;100.00;95736.34;5036126;28;20213;-67
2023/11/13 07:09:41;;;;;;;2.50;1.10;;;;;;;12.01;100.00;95735.34;5037109;28;20348;-67
2023/11/13 07:12:08;;;;;;;4.73;0.70;;;;;;;12.19;100.00;95739.03;5037286;28;20312;-65
2023/11/13 07:14:35;;;;;;;1.70;0.90;;;;;;;12.16;100.00;95740.25;5035684;28;20775;-67
2023/11/13 07:17:03;;;;;;;4.17;1.27;;;;;;;12.18;100.00;95746.16;5036588;28;20209;-67
2023/11/13 07:19:34;;;;;;;7.03;1.67;;;;;;;12.32;100.00;95734.63;5036281;28;20209;-67
2023/11/13 07:22:01;;;;;;;2.03;0.90;;;;;;;12.12;100.00;95750.59;5035380;28;20205;-67
2023/11/13 07:24:28;;;;;;;8.83;1.90;;;;;;;12.13;100.00;95754.88;5035297;28;20225;-67
2023/11/13 07:26:55;;;;;;;4.40;1.00;;;;;;;11.98;100.00;95743.66;5036605;28;20278;-67
2023/11/13 07:29:21;;;;;;;4.43;1.10;;;;;;;11.91;100.00;95735.69;5037034;28;20213;-65
2023/11/13 07:31:48;;;;;;;6.57;1.83;;;;;;;11.91;100.00;95740.97;5036236;28;20205;-66
2023/11/13 07:34:16;;;;;;;3.07;1.10;;;;;;;12.05;100.00;95747.94;5036149;28;20227;-67
2023/11/13 07:36:42;;;;;;;3.00;1.07;;;;;;;12.06;100.00;95744.28;5037280;28;20226;-66
2023/11/13 07:39:10;;;;;;;8.13;1.30;;;;;;;12.02;100.00;95745.69;5036137;28;21019;-65
2023/11/13 07:41:37;;;;;;;3.90;1.57;;;;;;;11.88;100.00;95741.38;5036643;28;20215;-67
2023/11/13 07:44:04;;;;;;;3.23;1.00;;;;;;;11.84;100.00;95750.69;5035139;28;20753;-67
2023/11/13 07:46:30;;;;;;;2.10;1.10;;;;;;;11.85;100.00;95752.31;5036150;28;20205;-67
2023/11/13 07:48:57;;;;;;;3.93;0.80;;;;;;;11.61;100.00;95744.09;5036243;28;20201;-67
2023/11/13 07:51:26;;;;;;;2.80;1.50;;;;;;;11.98;100.00;95754.22;5034999;28;20207;-67
2023/11/13 07:53:53;;;;;;;1.17;0.93;;;;;;;11.79;100.00;95753.09;5034845;28;20224;-67
2023/11/13 07:56:21;;;;;;;2.57;1.20;;;;;;;11.77;100.00;95764.88;5036623;28;20225;-67
2023/11/13 07:58:47;;;;;;;1.13;0.67;;;;;;;11.70;100.00;95782.50;5036605;28;20205;-67
2023/11/13 08:01:14;;;;;;;1.60;1.07;;;;;;;11.83;100.00;95785.22;5035799;28;20205;-67
2023/11/13 08:03:40;;;;;;;4.80;1.80;;;;;;;11.72;100.00;95798.94;5035233;28;20232;-67
2023/11/13 08:06:07;;;;;;;1.33;1.00;;;;;;;11.78;100.00;95803.47;5036334;28;20594;-67
2023/11/13 08:08:35;;;;;;;2.50;1.03;;;;;;;11.91;100.00;95800.88;5035888;28;20201;-67
2023/11/13 08:11:02;;;;;;;2.77;1.10;;;;;;;12.04;100.00;95798.31;5035910;28;20223;-67
2023/11/13 08:13:28;;;;;;;5.37;1.07;;;;;;;12.23;100.00;95788.66;5035245;28;20221;-67
2023/11/13 08:15:55;;;;;;;2.00;1.03;;;;;;;12.00;100.00;95797.06;5036333;28;20368;-67
2023/11/13 08:18:22;;;;;;;9.27;1.43;;;;;;;11.96;100.00;95788.72;5035948;28;20209;-67
2023/11/13 08:20:49;;;;;;;2.43;1.10;;;;;;;12.03;100.00;95794.03;5032822;28;20201;-67
2023/11/13 08:23:17;;;;;;;4.67;1.77;;;;;;;11.87;100.00;95786.44;5034871;28;20217;-67
2023/11/13 08:25:46;;;;;;;2.00;1.00;;;;;;;11.87;100.00;95786.44;5034465;28;20221;-67
2023/11/13 08:28:13;;;;;;;1.20;0.87;;;;;;;11.76;100.00;95784.34;5035401;28;20209;-67
2023/11/13 08:30:41;;;;;;;3.17;1.00;;;;;;;11.65;100.00;95782.28;5035400;28;20201;-67
2023/11/13 08:33:08;;;;;;;1.90;0.90;;;;;;;11.64;100.00;95793.81;5034893;28;20284;-67
2023/11/13 08:35:34;;;;;;;2.70;1.50;;;;;;;11.74;100.00;95789.81;5034062;28;20208;-67
2023/11/13 08:38:02;;;;;;;7.20;0.90;;;;;;;11.79;100.00;95791.91;5034995;28;20200;-67
2023/11/13 08:40:29;;;;;;;2.10;0.80;;;;;;;11.68;100.00;95781.88;5033746;28;20752;-67
2023/11/13 08:42:58;;;;;;;4.80;0.93;;;;;;;11.93;100.00;95797.03;5034593;28;20707;-67
2023/11/13 08:45:25;;;;;;;3.97;1.00;;;;;;;11.68;100.00;95776.59;5032343;28;20710;-67
2023/11/13 08:47:52;;;;;;;3.80;1.10;;;;;;;11.40;100.00;95783.69;5033793;28;20208;-67
2023/11/13 08:50:21;;;;;;;2.00;1.00;;;;;;;11.72;100.00;95785.75;5032775;28;20207;-67
2023/11/13 08:52:49;;;;;;;1.50;0.80;;;;;;;11.46;100.00;95767.09;5033598;28;20236;-67
2023/11/13 08:55:18;;;;;;;2.97;0.80;;;;;;;11.28;100.00;95768.59;5032112;28;20222;-67
2023/11/13 08:57:45;;;;;;;2.70;1.13;;;;;;;11.31;100.00;95774.28;5033598;28;20667;-66
2023/11/13 09:00:20;;;;;;;4.00;1.03;;;;;;;11.57;100.00;95769.25;5033417;28;20778;-66
2023/11/13 09:02:47;;;;;;;0.97;0.90;;;;;;;11.52;100.00;95763.72;5033235;28;20320;-67
2023/11/13 09:05:14;;;;;;;1.30;0.87;;;;;;;11.35;100.00;95770.25;5031673;28;20632;-67
2023/11/13 09:07:41;;;;;;;0.93;0.63;;;;;;;11.52;100.00;95765.53;5032033;28;20603;-67
2023/11/13 09:10:09;;;;;;;3.13;1.40;;;;;;;11.48;100.00;95758.97;5033337;28;20201;-67
2023/11/13 09:12:39;;;;;;;2.07;1.07;;;;;;;11.57;100.00;95764.75;5034584;28;20216;-67
2023/11/13 09:15:11;;;;;;;2.53;1.33;;;;;;;11.53;100.00;95765.31;5035748;28;20274;-67
2023/11/13 09:17:43;;;;;;;2.40;1.00;;;;;;;11.67;100.00;95759.13;5038077;28;20216;-67
2023/11/13 09:20:14;;;;;;;4.40;1.50;;;;;;;11.66;100.00;95755.69;5037405;28;20197;-67
2023/11/13 09:22:41;;;;;;;1.77;1.33;;;;;;;11.62;100.00;95764.16;5038123;28;20201;-67
2023/11/13 09:25:13;;;;;;;2.10;1.40;;;;;;;11.86;100.00;95755.78;5036938;28;20229;-66
2023/11/13 09:27:40;;;;;;;3.50;2.13;;;;;;;11.80;100.00;95756.53;5037763;28;21080;-67
2023/11/13 09:30:10;;;;;;;7.73;2.50;;;;;;;11.89;100.00;95755.38;5037655;28;20207;-67
2023/11/13 09:32:38;;;;;;;4.10;2.47;;;;;;;11.77;100.00;95759.59;5036435;28;20263;-65
2023/11/13 09:35:07;;;;;;;7.07;3.23;;;;;;;11.99;100.00;95759.28;5035651;28;20300;-67
2023/11/13 09:37:33;;;;;;;3.30;2.30;;;;;;;11.84;100.00;95752.53;5035002;28;20604;-67
2023/11/13 09:40:00;;;;;;;3.67;1.40;;;;;;;11.90;100.00;95746.44;5036718;28;20201;-67
2023/11/13 09:42:28;;;;;;;4.77;1.43;;;;;;;11.90;100.00;95735.88;5036604;28;20216;-68
2023/11/13 09:44:57;;;;;;;4.63;1.60;;;;;;;12.01;100.00;95735.34;5035702;28;20232;-67
2023/11/13 09:47:29;;;;;;;3.53;1.73;;;;;;;12.10;100.00;95734.16;5035815;28;20208;-67
2023/11/13 09:50:00;;;;;;;3.17;1.73;;;;;;;12.02;100.00;95736.97;5035291;28;20567;-67
2023/11/13 09:52:30;;;;;;;4.03;2.40;;;;;;;12.07;100.00;95745.13;5034600;28;20288;-67
2023/11/13 09:54:58;;;;;;;3.63;2.47;;;;;;;12.00;100.00;95733.69;5035411;28;20228;-67
2023/11/13 09:57:26;;;;;;;5.17;2.57;;;;;;;12.10;100.00;95728.84;5036649;28;20959;-66
2023/11/13 09:59:54;;;;;;;4.00;1.93;;;;;;;11.88;100.00;95730.00;5037764;28;20197;-69
2023/11/13 10:02:21;;;;;;;5.63;1.80;;;;;;;12.08;100.00;95730.88;5038533;28;20216;-67
2023/11/13 10:04:47;;;;;;;5.50;2.37;;;;;;;12.10;100.00;95723.56;5037161;28;20225;-67
2023/11/13 10:07:16;;;;;;;5.10;2.00;;;;;;;12.30;100.00;95717.34;5037893;28;20208;-68
2023/11/13 10:10:02;;;;;;;2.13;1.60;;;;;;;12.47;100.00;95721.22;5038693;28;20712;-66
2023/11/13 10:12:30;;;;;;;2.03;1.60;;;;;;;12.33;100.00;95709.84;5037717;28;20209;-68
2023/11/13 10:15:07;;;;;;;2.90;1.53;;;;;;;12.66;100.00;95700.09;5037330;28;20232;-66
2023/11/13 10:17:42;;;;;;;1.13;1.00;;;;;;;12.55;100.00;95702.53;5038386;28;20216;-68
2023/11/13 10:20:10;;;;;;;3.40;2.00;;;;;;;12.56;100.00;95702.31;5038343;28;20207;-69
2023/11/13 10:22:37;;;;;;;6.23;3.03;;;;;;;12.55;100.00;95694.59;5038067;28;20229;-65
2023/11/13 10:25:09;;;;;;;6.33;2.50;;;;;;;12.77;100.00;95696.88;5037335;28;20237;-68
2023/11/13 10:27:36;;;;;;;9.33;3.70;;;;;;;12.75;100.00;95696.25;5037611;28;20290;-66
2023/11/13 10:30:04;;;;;;;2.67;1.50;;;;;;;12.69;100.00;95696.25;5037410;28;20211;-68
2023/11/13 10:32:31;;;;;;;1.90;1.23;;;;;;;12.88;100.00;95683.88;5038055;28;21219;-69
2023/11/13 10:34:58;;;;;;;2.50;1.70;;;;;;;12.91;100.00;95693.25;5037416;28;20612;-66
2023/11/13 10:37:24;;;;;;;2.60;1.30;;;;;;;12.93;100.00;95685.91;5036995;28;20205;-68
2023/11/13 10:39:51;;;;;;;3.90;1.20;;;;;;;13.13;100.00;95690.16;5037590;28;20217;-69
2023/11/13 10:42:23;;;;;;;0.83;0.70;;;;;;;13.21;100.00;95683.84;5038153;28;20292;-67
2023/11/13 10:44:50;;;;;;;1.53;0.80;;;;;;;13.20;100.00;95687.50;5036711;28;20786;-68
2023/11/13 10:47:23;;;;;;;1.40;0.90;;;;;;;13.30;100.00;95679.94;5037760;28;20197;-68
2023/11/13 10:49:51;;;;;;;3.47;1.53;;;;;;;13.25;100.00;95674.47;5037820;28;20206;-68
2023/11/13 10:52:19;;;;;;;1.33;1.00;;;;;;;13.36;100.00;95673.84;5037864;28;20197;-66
2023/11/13 10:54:48;;;;;;;2.27;1.30;;;;;;;13.36;100.00;95663.25;5036425;28;20601;-67
2023/11/13 10:57:16;;;;;;;2.00;0.70;;;;;;;13.26;100.00;95660.22;5037352;28;20667;-69
2023/11/13 10:59:46;;;;;;;1.13;0.80;;;;;;;13.37;100.00;95654.31;5037064;28;20324;-69
2023/11/13 11:02:24;;;;;;;0.70;0.67;;;;;;;13.39;100.00;95653.88;5037103;28;20794;-69
2023/11/13 11:04:56;;;;;;;3.80;1.00;;;;;;;13.42;100.00;95650.81;5035555;28;20224;-67
2023/11/13 11:07:26;;;;;;;1.17;0.77;;;;;;;13.41;100.00;95649.19;5036344;28;20213;-69
2023/11/13 11:09:57;;;;;;;4.73;0.97;;;;;;;13.41;100.00;95649.19;5036487;28;20904;-69
2023/11/13 11:12:26;;;;;;;1.30;1.20;;;;;;;13.16;100.00;95643.97;5036154;28;20674;-67
2023/11/13 11:15:17;;;;;;;2.00;1.10;;;;;;;13.35;100.00;95648.41;5036208;28;20217;-67
2023/11/13 11:17:48;;;;;;;2.07;1.40;;;;;;;13.55;100.00;95636.72;5036588;28;20212;-67
2023/11/13 11:20:24;;;;;;;0.70;0.67;;;;;;;13.44;100.00;95634.72;5037977;28;20201;-66
2023/11/13 11:22:55;;;;;;;2.20;0.97;;;;;;;13.46;100.00;95624.75;5036786;28;20338;-68
2023/11/13 11:25:35;;;;;;;1.63;1.10;;;;;;;13.44;100.00;95617.03;5036090;28;20232;-66
2023/11/13 11:28:04;;;;;;;4.23;0.90;;;;;;;13.37;100.00;95610.13;5037531;28;20216;-67